Time;durP1;ratioP1;P1;durP2;ratioP2;P2;SDS_P1;SDS_P2;PMS_P1;PMS_P2;Temp;Humidity;BMP_temperature;BMP_pressure;BME280_temperature;BME280_humidity;BME280_pressure;Samples;Min_cycle;Max_cycle;Signal;HPM_P1;HPM_P2
2023/03/11 00:00:50;;;;;;;;;;;2.30;99.90;;;;;;5019548;28;19923;-89
2023/03/11 00:03:17;;;;;;;;;;;2.30;99.90;;;;;;5019699;28;19948;-88
2023/03/11 00:05:45;;;;;;;;;;;2.20;99.90;;;;;;5020179;28;19919;-87
2023/03/11 00:08:15;;;;;;;;;;;2.20;99.90;;;;;;5020002;28;19955;-88
2023/03/11 00:10:42;;;;;;;;;;;2.20;99.90;;;;;;5019894;28;19958;-88
2023/03/11 00:13:09;;;;;;;;;;;2.20;99.90;;;;;;5019836;28;19940;-90
2023/03/11 00:15:38;;;;;;;;;;;2.20;99.90;;;;;;5019675;28;20407;-87
2023/03/11 00:18:03;;;;;;;;;;;2.20;99.90;;;;;;5019571;28;20003;-87
2023/03/11 00:20:49;;;;;;;;;;;2.10;99.90;;;;;;5019597;28;20004;-87
2023/03/11 00:23:14;;;;;;;;;;;2.20;99.90;;;;;;5019063;28;20000;-87
2023/03/11 00:25:41;;;;;;;;;;;2.10;99.90;;;;;;5019457;28;19963;-88
2023/03/11 00:29:01;;;;;;;;;;;2.10;99.90;;;;;;5019345;28;20455;-87
2023/03/11 00:31:03;;;;;;;;;;;2.10;99.90;;;;;;5026443;28;19955;-87
2023/03/11 00:33:29;;;;;;;;;;;2.10;99.90;;;;;;5019141;28;20004;-87
2023/03/11 00:35:54;;;;;;;;;;;2.10;99.90;;;;;;5019579;28;19955;-89
2023/03/11 00:38:21;;;;;;;;;;;2.10;99.90;;;;;;5019099;28;19905;-88
2023/03/11 00:40:47;;;;;;;;;;;2.10;99.90;;;;;;5018869;28;19917;-88
2023/03/11 00:43:13;;;;;;;;;;;2.10;99.90;;;;;;5019306;28;19905;-87
2023/03/11 00:45:39;;;;;;;;;;;2.10;99.90;;;;;;5018804;28;19909;-86
2023/03/11 00:48:25;;;;;;;;;;;2.10;99.90;;;;;;5019393;28;19905;-86
2023/03/11 00:50:51;;;;;;;;;;;2.10;99.90;;;;;;5002487;28;19959;-87
2023/03/11 00:53:16;;;;;;;;;;;2.10;99.90;;;;;;5018889;28;19995;-86
2023/03/11 00:55:44;;;;;;;;;;;2.10;99.90;;;;;;5018438;28;20295;-87
2023/03/11 00:58:10;;;;;;;;;;;2.10;99.90;;;;;;5019085;28;19928;-87
2023/03/11 01:00:38;;;;;;;;;;;2.10;99.90;;;;;;5018642;28;20257;-89
2023/03/11 01:03:04;;;;;;;;;;;2.10;99.90;;;;;;5036248;28;19905;-88
2023/03/11 01:05:31;;;;;;;;;;;2.00;99.90;;;;;;5018294;28;19999;-88
2023/03/11 01:08:01;;;;;;;;;;;2.00;99.90;;;;;;5018688;28;19905;-88
2023/03/11 01:10:27;;;;;;;;;;;2.10;99.90;;;;;;5018656;28;19932;-88
2023/03/11 01:12:53;;;;;;;;;;;2.00;99.90;;;;;;5020555;28;20360;-88
2023/03/11 01:15:24;;;;;;;;;;;2.00;99.90;;;;;;5019180;28;20007;-88
2023/03/11 01:17:49;;;;;;;;;;;2.00;99.90;;;;;;5020282;28;19970;-87
2023/03/11 01:20:15;;;;;;;;;;;2.00;99.90;;;;;;5018455;28;20357;-88
2023/03/11 01:22:41;;;;;;;;;;;2.00;99.90;;;;;;5018636;28;19909;-87
2023/03/11 01:25:09;;;;;;;;;;;1.90;99.90;;;;;;5019383;28;19942;-89
2023/03/11 01:27:34;;;;;;;;;;;1.90;99.90;;;;;;5019563;28;19905;-89
2023/03/11 01:30:02;;;;;;;;;;;1.90;99.90;;;;;;5003143;28;19932;-89
2023/03/11 01:32:30;;;;;;;;;;;1.90;99.90;;;;;;5018759;28;19905;-87
2023/03/11 01:34:59;;;;;;;;;;;1.90;99.90;;;;;;5028678;28;19905;-88
2023/03/11 01:37:24;;;;;;;;;;;1.90;99.90;;;;;;5040633;28;19955;-88
2023/03/11 01:39:57;;;;;;;;;;;1.90;99.90;;;;;;5022891;28;20312;-87
2023/03/11 01:42:25;;;;;;;;;;;1.90;99.90;;;;;;5041139;28;19917;-88
2023/03/11 01:44:51;;;;;;;;;;;1.90;99.90;;;;;;5039753;28;19915;-87
2023/03/11 01:47:34;;;;;;;;;;;1.90;99.90;;;;;;5040864;28;19909;-92
2023/03/11 01:50:05;;;;;;;;;;;1.90;99.90;;;;;;5052970;28;19913;-88
2023/03/11 01:52:31;;;;;;;;;;;1.90;99.90;;;;;;5013645;28;19984;-89
2023/03/11 01:54:56;;;;;;;;;;;1.90;99.90;;;;;;5019922;28;20395;-88
2023/03/11 01:57:31;;;;;;;;;;;1.80;99.90;;;;;;5034195;28;19916;-87
2023/03/11 01:59:59;;;;;;;;;;;1.90;99.90;;;;;;5071076;28;19919;-88
2023/03/11 02:02:34;;;;;;;;;;;1.80;99.90;;;;;;5037722;28;20364;-89
2023/03/11 02:05:00;;;;;;;;;;;1.80;99.90;;;;;;5037603;28;19904;-88
2023/03/11 02:07:26;;;;;;;;;;;1.80;99.90;;;;;;5037530;28;19905;-88
2023/03/11 02:09:51;;;;;;;;;;;1.80;99.90;;;;;;5037357;28;19912;-87
2023/03/11 02:12:17;;;;;;;;;;;1.80;99.90;;;;;;5037062;28;20365;-87
2023/03/11 02:14:45;;;;;;;;;;;1.80;99.90;;;;;;5070391;28;19951;-87
2023/03/11 02:17:11;;;;;;;;;;;1.80;99.90;;;;;;5070683;28;20007;-86
2023/03/11 02:20:01;;;;;;;;;;;1.80;99.90;;;;;;5053641;28;19959;-88
2023/03/11 02:22:28;;;;;;;;;;;1.80;99.90;;;;;;5070455;28;19924;-87
2023/03/11 02:24:58;;;;;;;;;;;1.80;99.90;;;;;;5036876;28;19905;-86
2023/03/11 02:27:25;;;;;;;;;;;1.80;99.90;;;;;;5036797;28;19970;-87
2023/03/11 02:29:53;;;;;;;;;;;1.80;99.90;;;;;;5036789;28;19955;-86
2023/03/11 02:32:19;;;;;;;;;;;1.80;99.90;;;;;;5053367;28;19912;-86
2023/03/11 02:34:44;;;;;;;;;;;1.80;99.90;;;;;;5037145;28;19905;-89
2023/03/11 02:37:12;;;;;;;;;;;1.80;99.90;;;;;;5036890;28;19905;-87
2023/03/11 02:39:45;;;;;;;;;;;1.80;99.90;;;;;;5037116;28;20356;-87
2023/03/11 02:42:12;;;;;;;;;;;1.80;99.90;;;;;;5036828;28;19928;-88
2023/03/11 02:44:41;;;;;;;;;;;1.80;99.90;;;;;;5036975;28;19904;-88
2023/03/11 02:47:06;;;;;;;;;;;1.80;99.90;;;;;;5036444;28;19911;-87
2023/03/11 02:49:32;;;;;;;;;;;1.80;99.90;;;;;;5036892;28;20344;-87
2023/03/11 02:51:58;;;;;;;;;;;1.70;99.90;;;;;;5053131;28;19935;-87
2023/03/11 02:54:26;;;;;;;;;;;1.80;99.90;;;;;;5036572;28;19912;-87
2023/03/11 02:56:54;;;;;;;;;;;1.80;99.90;;;;;;5034207;28;20012;-87
2023/03/11 02:59:20;;;;;;;;;;;1.80;99.90;;;;;;5052599;28;19966;-87
2023/03/11 03:01:45;;;;;;;;;;;1.80;99.90;;;;;;5052870;28;19924;-88
2023/03/11 03:04:11;;;;;;;;;;;1.80;99.90;;;;;;5069709;28;19959;-88
2023/03/11 03:06:36;;;;;;;;;;;1.80;99.90;;;;;;5036559;28;19958;-87
2023/03/11 03:09:02;;;;;;;;;;;1.80;99.90;;;;;;5036518;28;19995;-86
2023/03/11 03:11:29;;;;;;;;;;;1.90;99.90;;;;;;5036529;28;19904;-87
2023/03/11 03:13:55;;;;;;;;;;;1.80;99.90;;;;;;5036374;28;19905;-87
2023/03/11 03:16:21;;;;;;;;;;;1.80;99.90;;;;;;5039477;28;19905;-86
2023/03/11 03:18:47;;;;;;;;;;;1.80;99.90;;;;;;5056922;28;19912;-86
2023/03/11 03:21:12;;;;;;;;;;;1.80;99.90;;;;;;5057248;28;20386;-88
2023/03/11 03:23:38;;;;;;;;;;;1.80;99.90;;;;;;5040790;28;20275;-87
2023/03/11 03:26:07;;;;;;;;;;;1.80;99.90;;;;;;5040532;28;19908;-87
2023/03/11 03:28:33;;;;;;;;;;;1.80;99.90;;;;;;5040164;28;19983;-86
2023/03/11 03:31:02;;;;;;;;;;;1.80;99.90;;;;;;5056952;28;19994;-87
2023/03/11 03:33:28;;;;;;;;;;;1.80;99.90;;;;;;5073598;28;19909;-87
2023/03/11 03:35:53;;;;;;;;;;;1.80;99.90;;;;;;5039750;28;19912;-88
2023/03/11 03:38:21;;;;;;;;;;;1.80;99.90;;;;;;5058122;28;19905;-88
2023/03/11 03:40:50;;;;;;;;;;;1.80;99.90;;;;;;5039740;28;19916;-90
2023/03/11 03:43:16;;;;;;;;;;;1.80;99.90;;;;;;5040195;28;19958;-87
2023/03/11 03:45:41;;;;;;;;;;;1.80;99.90;;;;;;5040122;28;20349;-87
2023/03/11 03:48:07;;;;;;;;;;;1.80;99.90;;;;;;5073070;28;20099;-87
2023/03/11 03:50:38;;;;;;;;;;;1.80;99.90;;;;;;5039041;28;19911;-87
2023/03/11 03:53:05;;;;;;;;;;;1.80;99.90;;;;;;5054648;28;19909;-88
2023/03/11 03:55:30;;;;;;;;;;;1.80;99.90;;;;;;5044299;28;19912;-89
2023/03/11 03:57:59;;;;;;;;;;;1.80;99.90;;;;;;5038974;28;20364;-87
2023/03/11 04:00:25;;;;;;;;;;;1.80;99.90;;;;;;5038995;28;20034;-86
2023/03/11 04:02:50;;;;;;;;;;;1.80;99.90;;;;;;5038485;28;19966;-88
2023/03/11 04:05:18;;;;;;;;;;;1.80;99.90;;;;;;5038051;28;20411;-88
2023/03/11 04:07:44;;;;;;;;;;;1.80;99.90;;;;;;5072935;28;19909;-88
2023/03/11 04:10:12;;;;;;;;;;;1.80;99.90;;;;;;5039318;28;20376;-88
2023/03/11 04:12:38;;;;;;;;;;;1.80;99.90;;;;;;5039501;28;19927;-87
2023/03/11 04:15:03;;;;;;;;;;;1.70;99.90;;;;;;5039167;28;20336;-88
2023/03/11 04:17:29;;;;;;;;;;;1.70;99.90;;;;;;5055850;28;20007;-88
2023/03/11 04:19:55;;;;;;;;;;;1.70;99.90;;;;;;5039239;28;19904;-86
2023/03/11 04:22:20;;;;;;;;;;;1.80;99.90;;;;;;5039228;28;20007;-86
2023/03/11 04:24:46;;;;;;;;;;;1.80;99.90;;;;;;5039473;28;20290;-88
2023/03/11 04:27:11;;;;;;;;;;;1.80;99.90;;;;;;5055664;28;19916;-86
2023/03/11 04:29:39;;;;;;;;;;;1.70;99.90;;;;;;5039841;28;19917;-86
2023/03/11 04:32:05;;;;;;;;;;;1.70;99.90;;;;;;5055667;28;20006;-86
2023/03/11 04:34:30;;;;;;;;;;;1.70;99.90;;;;;;5039578;28;20340;-86
2023/03/11 04:36:56;;;;;;;;;;;1.70;99.90;;;;;;5039105;28;20337;-87
2023/03/11 04:39:21;;;;;;;;;;;1.80;99.90;;;;;;5056966;28;20356;-88
2023/03/11 04:41:49;;;;;;;;;;;1.70;99.90;;;;;;5072932;28;20065;-88
2023/03/11 04:44:15;;;;;;;;;;;1.70;99.90;;;;;;5023164;28;19912;-90
2023/03/11 04:46:41;;;;;;;;;;;1.70;99.90;;;;;;5076946;28;19908;-87
2023/03/11 04:49:07;;;;;;;;;;;1.70;99.90;;;;;;5062199;28;19893;-91
2023/03/11 04:51:32;;;;;;;;;;;1.70;99.90;;;;;;5062735;28;19897;-87
2023/03/11 04:53:58;;;;;;;;;;;1.70;99.90;;;;;;5078464;28;19900;-90
2023/03/11 04:56:23;;;;;;;;;;;1.70;99.90;;;;;;5054139;28;19948;-88
2023/03/11 04:58:51;;;;;;;;;;;1.60;99.90;;;;;;5071214;28;19965;-87
2023/03/11 05:01:19;;;;;;;;;;;1.60;99.90;;;;;;5022673;28;19924;-86
2023/03/11 05:03:45;;;;;;;;;;;1.60;99.90;;;;;;5026061;28;19905;-87
2023/03/11 05:06:10;;;;;;;;;;;1.60;99.90;;;;;;5034258;28;19904;-87
2023/03/11 05:08:36;;;;;;;;;;;1.60;99.90;;;;;;5034879;28;20285;-88
2023/03/11 05:11:02;;;;;;;;;;;1.60;99.90;;;;;;5042933;28;19999;-88
2023/03/11 05:13:28;;;;;;;;;;;1.60;99.90;;;;;;5028343;28;19916;-86
2023/03/11 05:15:56;;;;;;;;;;;1.60;99.90;;;;;;5031655;28;19908;-87
2023/03/11 05:18:21;;;;;;;;;;;1.60;99.90;;;;;;5021519;28;19944;-87
2023/03/11 05:20:47;;;;;;;;;;;1.60;99.90;;;;;;5033337;28;19978;-86
2023/03/11 05:23:12;;;;;;;;;;;1.60;99.90;;;;;;5026062;28;19904;-87
2023/03/11 05:25:38;;;;;;;;;;;1.60;99.90;;;;;;5021361;28;19962;-88
2023/03/11 05:28:11;;;;;;;;;;;1.60;99.90;;;;;;5017644;28;20352;-88
2023/03/11 05:30:37;;;;;;;;;;;1.60;99.90;;;;;;5034382;28;20026;-87
2023/03/11 05:33:02;;;;;;;;;;;1.60;99.90;;;;;;5024761;28;19932;-88
2023/03/11 05:35:28;;;;;;;;;;;1.50;99.90;;;;;;5027648;28;19928;-87
2023/03/11 05:37:53;;;;;;;;;;;1.60;99.90;;;;;;5017722;28;20296;-88
2023/03/11 05:40:19;;;;;;;;;;;1.50;99.90;;;;;;5035503;28;19905;-86
2023/03/11 05:42:46;;;;;;;;;;;1.50;99.90;;;;;;5051001;28;19921;-87
2023/03/11 05:45:12;;;;;;;;;;;1.50;99.90;;;;;;5020434;28;19916;-85
2023/03/11 05:47:40;;;;;;;;;;;1.50;99.90;;;;;;5018706;28;20008;-87
2023/03/11 05:50:07;;;;;;;;;;;1.50;99.90;;;;;;5032798;28;19905;-86
2023/03/11 05:52:35;;;;;;;;;;;1.50;99.90;;;;;;5020214;28;19905;-87
2023/03/11 05:55:00;;;;;;;;;;;1.50;99.90;;;;;;5030416;28;19905;-86
2023/03/11 05:57:26;;;;;;;;;;;1.50;99.90;;;;;;5026982;28;19974;-85
2023/03/11 05:59:51;;;;;;;;;;;1.50;99.90;;;;;;5039953;28;19915;-87
2023/03/11 06:02:17;;;;;;;;;;;1.50;99.90;;;;;;5033053;28;20292;-85
2023/03/11 06:04:42;;;;;;;;;;;1.50;99.90;;;;;;5003909;28;19936;-86
2023/03/11 06:07:08;;;;;;;;;;;1.50;99.90;;;;;;5027832;28;19909;-87
2023/03/11 06:09:37;;;;;;;;;;;1.50;99.90;;;;;;5015414;28;19905;-85
2023/03/11 06:12:03;;;;;;;;;;;1.40;99.90;;;;;;5035109;28;19911;-86
2023/03/11 06:14:30;;;;;;;;;;;1.40;99.90;;;;;;5017595;28;19909;-88
2023/03/11 06:16:57;;;;;;;;;;;1.40;99.90;;;;;;5007558;28;19908;-85
2023/03/11 06:19:22;;;;;;;;;;;1.40;99.90;;;;;;5043785;28;19915;-85
2023/03/11 06:21:48;;;;;;;;;;;1.40;99.90;;;;;;5012946;28;19920;-85
2023/03/11 06:24:13;;;;;;;;;;;1.40;99.90;;;;;;5016360;28;20008;-85
2023/03/11 06:26:39;;;;;;;;;;;1.40;99.90;;;;;;5004138;28;19908;-87
2023/03/11 06:29:06;;;;;;;;;;;1.40;99.90;;;;;;5019908;28;19908;-86
2023/03/11 06:31:32;;;;;;;;;;;1.40;99.90;;;;;;5042424;28;19905;-86
2023/03/11 06:33:58;;;;;;;;;;;1.40;99.90;;;;;;5014470;28;20011;-85
2023/03/11 06:36:23;;;;;;;;;;;1.40;99.90;;;;;;5036446;28;20607;-86
2023/03/11 06:38:52;;;;;;;;;;;1.40;99.90;;;;;;5030362;28;19924;-86
2023/03/11 06:41:18;;;;;;;;;;;1.40;99.90;;;;;;5025132;28;19917;-85
2023/03/11 06:43:43;;;;;;;;;;;1.40;99.90;;;;;;5036897;28;19913;-86
2023/03/11 06:46:15;;;;;;;;;;;1.40;99.90;;;;;;5019763;28;19909;-86
2023/03/11 06:48:40;;;;;;;;;;;1.40;99.90;;;;;;5011068;28;20272;-86
2023/03/11 06:51:06;;;;;;;;;;;1.40;99.90;;;;;;4996800;28;19917;-91
2023/03/11 06:53:31;;;;;;;;;;;1.40;99.90;;;;;;4998476;28;19909;-85
2023/03/11 06:55:58;;;;;;;;;;;1.40;99.90;;;;;;5013979;28;19975;-85
2023/03/11 06:58:23;;;;;;;;;;;1.40;99.90;;;;;;5052436;28;19917;-85
2023/03/11 07:00:49;;;;;;;;;;;1.40;99.90;;;;;;5016677;28;19999;-86
2023/03/11 07:03:15;;;;;;;;;;;1.40;99.90;;;;;;5000296;28;19913;-86
2023/03/11 07:05:40;;;;;;;;;;;1.40;99.90;;;;;;5016613;28;19987;-85
2023/03/11 07:08:06;;;;;;;;;;;1.50;99.90;;;;;;5016605;28;19905;-86
2023/03/11 07:10:31;;;;;;;;;;;1.50;99.90;;;;;;5034351;28;19999;-86
2023/03/11 07:12:57;;;;;;;;;;;1.50;99.90;;;;;;5017015;28;19932;-85
2023/03/11 07:15:22;;;;;;;;;;;1.50;99.90;;;;;;5016491;28;19999;-86
2023/03/11 07:17:48;;;;;;;;;;;1.50;99.90;;;;;;5036478;28;19904;-86
2023/03/11 07:20:16;;;;;;;;;;;1.50;99.90;;;;;;5054352;28;19904;-86
2023/03/11 07:22:42;;;;;;;;;;;1.50;99.90;;;;;;5038476;28;19909;-85
2023/03/11 07:25:07;;;;;;;;;;;1.50;99.90;;;;;;5036790;28;19916;-86
2023/03/11 07:27:33;;;;;;;;;;;1.50;99.90;;;;;;5039119;28;20003;-88
2023/03/11 07:30:01;;;;;;;;;;;1.50;99.90;;;;;;5038105;28;19905;-87
2023/03/11 07:32:27;;;;;;;;;;;1.60;99.90;;;;;;5038087;28;19909;-87
2023/03/11 07:34:52;;;;;;;;;;;1.60;99.90;;;;;;5021218;28;19916;-88
2023/03/11 07:37:18;;;;;;;;;;;1.60;99.90;;;;;;5037640;28;20255;-87
2023/03/11 07:39:44;;;;;;;;;;;1.60;99.90;;;;;;5036791;28;19905;-87
2023/03/11 07:42:09;;;;;;;;;;;1.60;99.90;;;;;;5036854;28;19995;-89
2023/03/11 07:44:35;;;;;;;;;;;1.70;99.90;;;;;;5036856;28;20360;-87
2023/03/11 07:47:04;;;;;;;;;;;1.70;99.90;;;;;;5037131;28;20007;-87
2023/03/11 07:49:31;;;;;;;;;;;1.70;99.90;;;;;;5037873;28;19992;-87
2023/03/11 07:51:56;;;;;;;;;;;1.70;99.90;;;;;;5036718;28;19909;-88
2023/03/11 07:54:22;;;;;;;;;;;1.70;99.90;;;;;;5042778;28;19931;-88
2023/03/11 07:56:50;;;;;;;;;;;1.70;99.90;;;;;;5056188;28;19912;-88
2023/03/11 07:59:15;;;;;;;;;;;1.80;99.90;;;;;;5056884;28;19893;-93
2023/03/11 08:01:45;;;;;;;;;;;1.80;99.90;;;;;;5058306;28;19908;-88
2023/03/11 08:04:15;;;;;;;;;;;1.80;99.90;;;;;;5033239;28;20020;-89
2023/03/11 08:06:41;;;;;;;;;;;1.90;99.90;;;;;;5043256;28;19967;-91
2023/03/11 08:09:08;;;;;;;;;;;1.90;99.90;;;;;;5038298;28;19995;-88
2023/03/11 08:11:34;;;;;;;;;;;1.90;99.90;;;;;;5021304;28;19908;-89
2023/03/11 08:13:59;;;;;;;;;;;2.00;99.90;;;;;;5037195;28;19905;-88
2023/03/11 08:16:25;;;;;;;;;;;2.00;99.90;;;;;;5021111;28;19912;-88
2023/03/11 08:18:52;;;;;;;;;;;2.00;99.90;;;;;;5019616;28;19905;-89
2023/03/11 08:21:19;;;;;;;;;;;2.00;99.90;;;;;;5036209;28;19964;-87
2023/03/11 08:23:48;;;;;;;;;;;2.00;99.90;;;;;;5020201;28;19909;-89
2023/03/11 08:26:23;;;;;;;;;;;2.10;99.90;;;;;;5019490;28;19967;-89
2023/03/11 08:28:49;;;;;;;;;;;2.10;99.90;;;;;;5036365;28;19911;-87
2023/03/11 08:31:16;;;;;;;;;;;2.10;99.90;;;;;;5036708;28;20271;-87
2023/03/11 08:33:42;;;;;;;;;;;2.10;99.90;;;;;;5036628;28;20264;-88
2023/03/11 08:36:08;;;;;;;;;;;2.10;99.90;;;;;;5019994;28;19908;-89
2023/03/11 08:38:34;;;;;;;;;;;2.20;99.90;;;;;;5036261;28;19905;-89
2023/03/11 08:40:59;;;;;;;;;;;2.20;99.90;;;;;;5035859;28;20318;-89
2023/03/11 08:43:25;;;;;;;;;;;2.20;99.90;;;;;;5037895;28;19940;-89
2023/03/11 08:45:51;;;;;;;;;;;2.30;99.90;;;;;;5036733;28;20257;-88
2023/03/11 08:48:16;;;;;;;;;;;2.30;99.90;;;;;;5037704;28;20269;-88
2023/03/11 08:50:42;;;;;;;;;;;2.30;99.90;;;;;;5036006;28;19912;-89
2023/03/11 08:53:08;;;;;;;;;;;2.40;99.90;;;;;;5019322;28;19905;-88
2023/03/11 08:55:33;;;;;;;;;;;2.40;99.90;;;;;;5037561;28;19909;-86
2023/03/11 08:58:02;;;;;;;;;;;2.40;99.90;;;;;;5033781;28;20372;-88
2023/03/11 09:00:32;;;;;;;;;;;2.50;99.90;;;;;;5038450;28;20448;-88
2023/03/11 09:02:58;;;;;;;;;;;2.50;99.90;;;;;;5038983;28;19913;-88
2023/03/11 09:05:23;;;;;;;;;;;2.60;99.90;;;;;;5035376;28;19905;-89
2023/03/11 09:07:49;;;;;;;;;;;2.60;99.90;;;;;;5041326;28;19960;-88
2023/03/11 09:10:20;;;;;;;;;;;2.70;99.90;;;;;;5040049;28;20407;-88
2023/03/11 09:12:45;;;;;;;;;;;2.80;99.90;;;;;;5025269;28;19956;-89
2023/03/11 09:15:16;;;;;;;;;;;2.80;99.90;;;;;;5029819;28;19908;-88
2023/03/11 09:17:44;;;;;;;;;;;2.90;99.90;;;;;;5041818;28;20310;-89
2023/03/11 09:20:11;;;;;;;;;;;3.00;99.90;;;;;;5038176;28;19911;-90
2023/03/11 09:22:37;;;;;;;;;;;3.00;99.90;;;;;;5044530;28;19921;-89
2023/03/11 09:25:03;;;;;;;;;;;3.10;99.90;;;;;;5022506;28;19912;-87
2023/03/11 09:27:36;;;;;;;;;;;3.20;99.90;;;;;;5022404;28;19909;-87
2023/03/11 09:30:01;;;;;;;;;;;3.30;99.90;;;;;;5039361;28;19904;-89
2023/03/11 09:32:27;;;;;;;;;;;3.40;99.90;;;;;;5038794;28;19912;-88
2023/03/11 09:34:52;;;;;;;;;;;3.50;99.90;;;;;;5055048;28;19966;-89
2023/03/11 09:37:20;;;;;;;;;;;3.60;99.90;;;;;;5041870;28;19927;-90
2023/03/11 09:39:46;;;;;;;;;;;3.60;99.90;;;;;;5036965;28;20375;-89
2023/03/11 09:42:26;;;;;;;;;;;;;;;;;;;;;
2023/03/11 09:45:04;;;;;;;;;;;3.80;99.90;;;;;;5055531;28;19915;-88
2023/03/11 09:47:39;;;;;;;;;;;3.90;99.90;;;;;;5037907;28;19911;-90
2023/03/11 09:50:30;;;;;;;;;;;4.00;99.90;;;;;;5021817;28;20229;-88
2023/03/11 09:53:07;;;;;;;;;;;4.10;99.90;;;;;;4939553;29;20396;-88
2023/03/11 09:55:44;;;;;;;;;;;4.20;99.90;;;;;;5035124;28;19911;-88
2023/03/11 09:58:30;;;;;;;;;;;4.30;99.90;;;;;;5038025;28;19978;-90
2023/03/11 10:00:56;;;;;;;;;;;4.40;99.90;;;;;;5036461;28;19957;-89
2023/03/11 10:03:31;;;;;;;;;;;4.40;99.90;;;;;;5031746;28;19944;-88
2023/03/11 10:09:11;;;;;;;;;;;4.60;99.90;;;;;;5035576;28;19909;-88
2023/03/11 10:11:56;;;;;;;;;;;4.60;99.90;;;;;;5018301;28;20307;-87
2023/03/11 10:15:00;;;;;;;;;;;4.70;99.90;;;;;;5017753;28;19913;-89
2023/03/11 10:17:37;;;;;;;;;;;4.80;99.90;;;;;;4958398;28;19913;-92
2023/03/11 10:20:12;;;;;;;;;;;4.90;99.90;;;;;;5018922;28;19905;-89
2023/03/11 10:23:06;;;;;;;;;;;;;;;;;;;;;
2023/03/11 10:25:48;;;;;;;;;;;;;;;;;;;;;
2023/03/11 10:28:27;;;;;;;;;;;;;;;;;;;;;
2023/03/11 10:37:02;;;;;;;;;;;5.70;99.90;;;;;;4997923;28;19955;-89
2023/03/11 10:39:29;;;;;;;;;;;5.80;99.90;;;;;;5017775;28;19909;-90
2023/03/11 10:41:58;;;;;;;;;;;5.90;99.90;;;;;;5018416;28;20000;-90
2023/03/11 10:44:50;;;;;;;;;;;6.00;99.90;;;;;;5017209;28;20009;-87
2023/03/11 10:47:17;;;;;;;;;;;6.10;99.90;;;;;;4996013;28;19960;-86
2023/03/11 10:49:42;;;;;;;;;;;6.20;99.90;;;;;;5013102;28;19905;-87
2023/03/11 10:52:18;;;;;;;;;;;6.30;99.90;;;;;;5018073;28;19905;-92
2023/03/11 10:55:08;;;;;;;;;;;6.30;99.90;;;;;;5018208;28;19948;-88
2023/03/11 10:57:37;;;;;;;;;;;6.40;99.90;;;;;;5040811;28;19939;-89
2023/03/11 11:00:16;;;;;;;;;;;6.40;99.90;;;;;;5036983;28;19940;-89
2023/03/11 11:03:13;;;;;;;;;;;;;;;;;;;;;
2023/03/11 11:05:41;;;;;;;;;;;6.60;99.90;;;;;;5057231;28;19964;-93
2023/03/11 11:08:19;;;;;;;;;;;6.60;99.90;;;;;;5043368;28;19904;-90
2023/03/11 11:10:54;;;;;;;;;;;6.60;99.90;;;;;;5040310;28;19904;-90
2023/03/11 11:13:31;;;;;;;;;;;;;;;;;;;;;
2023/03/11 11:15:57;;;;;;;;;;;6.70;99.90;;;;;;5062562;28;19947;-89
2023/03/11 11:18:54;;;;;;;;;;;;;;;;;;;;;
2023/03/11 11:24:27;;;;;;;;;;;6.90;99.90;;;;;;5043077;28;19917;-88
2023/03/11 11:27:14;;;;;;;;;;;7.00;99.90;;;;;;5024096;28;19992;-88
2023/03/11 11:29:51;;;;;;;;;;;7.00;99.90;;;;;;4998218;28;20273;-89
2023/03/11 11:32:22;;;;;;;;;;;7.00;99.90;;;;;;5011129;28;19915;-89
2023/03/11 11:35:01;;;;;;;;;;;6.90;99.90;;;;;;5018159;28;19948;-89
2023/03/11 11:37:50;;;;;;;;;;;7.00;99.90;;;;;;5021093;28;19924;-89
2023/03/11 11:40:15;;;;;;;;;;;7.00;99.90;;;;;;5021699;28;20242;-90
2023/03/11 11:42:59;;;;;;;;;;;7.00;99.90;;;;;;5021213;28;19920;-87
2023/03/11 11:45:33;;;;;;;;;;;7.10;99.90;;;;;;5021943;28;19905;-90
2023/03/11 11:48:03;;;;;;;;;;;7.20;99.90;;;;;;5020387;28;20650;-89
2023/03/11 11:50:51;;;;;;;;;;;7.30;99.90;;;;;;5021803;28;19916;-89
2023/03/11 11:53:38;;;;;;;;;;;7.40;99.90;;;;;;5021953;28;19905;-89
2023/03/11 11:56:04;;;;;;;;;;;7.40;99.90;;;;;;5021790;28;20406;-89
2023/03/11 11:58:58;;;;;;;;;;;7.50;99.90;;;;;;5029737;28;19921;-91
2023/03/11 12:01:26;;;;;;;;;;;7.70;99.90;;;;;;5040212;28;19913;-88
2023/03/11 12:04:32;;;;;;;;;;;7.80;99.90;;;;;;5052788;28;19909;-93
2023/03/11 12:07:07;;;;;;;;;;;7.80;99.90;;;;;;5051823;28;20004;-84
2023/03/11 12:09:41;;;;;;;;;;;7.90;99.90;;;;;;5043701;28;19966;-88
2023/03/11 12:12:15;;;;;;;;;;;8.00;99.90;;;;;;5041714;28;19931;-88
2023/03/11 12:15:02;;;;;;;;;;;8.00;99.90;;;;;;5041351;28;19912;-89
2023/03/11 12:17:32;;;;;;;;;;;8.00;99.90;;;;;;5036720;28;19909;-90
2023/03/11 12:20:13;;;;;;;;;;;8.10;99.90;;;;;;5048796;28;19948;-88
2023/03/11 12:22:52;;;;;;;;;;;8.10;99.90;;;;;;5058621;28;19912;-89
2023/03/11 12:25:34;;;;;;;;;;;8.20;99.90;;;;;;5077746;28;19954;-92
2023/03/11 12:28:14;;;;;;;;;;;8.20;99.90;;;;;;5061196;28;19934;-88
2023/03/11 12:30:45;;;;;;;;;;;8.30;99.90;;;;;;5060663;28;19940;-90
2023/03/11 12:33:16;;;;;;;;;;;8.30;99.90;;;;;;5060473;28;19943;-90
2023/03/11 12:35:56;;;;;;;;;;;8.30;99.90;;;;;;5060189;28;19947;-88
2023/03/11 12:38:43;;;;;;;;;;;8.40;99.90;;;;;;5042546;28;19961;-91
2023/03/11 12:41:12;;;;;;;;;;;8.50;99.90;;;;;;5045165;28;19920;-96
2023/03/11 12:43:56;;;;;;;;;;;8.40;99.90;;;;;;5051168;28;19912;-92
2023/03/11 12:46:41;;;;;;;;;;;8.40;99.90;;;;;;5062437;28;19908;-89
2023/03/11 12:49:29;;;;;;;;;;;8.40;99.90;;;;;;5039193;28;19953;-89
2023/03/11 12:52:00;;;;;;;;;;;8.40;99.90;;;;;;5053117;28;19905;-89
2023/03/11 12:54:42;;;;;;;;;;;8.40;99.90;;;;;;5039486;28;19905;-91
2023/03/11 12:57:20;;;;;;;;;;;8.40;99.90;;;;;;5057701;28;20003;-87
2023/03/11 13:00:16;;;;;;;;;;;8.40;99.90;;;;;;5047290;28;19954;-94
2023/03/11 13:02:50;;;;;;;;;;;8.40;99.90;;;;;;5025174;28;19962;-88
2023/03/11 13:05:33;;;;;;;;;;;8.50;99.90;;;;;;5020035;28;19913;-90
2023/03/11 13:08:11;;;;;;;;;;;8.60;99.90;;;;;;5019901;28;19920;-90
2023/03/11 13:10:40;;;;;;;;;;;8.70;99.90;;;;;;5019675;28;19971;-89
2023/03/11 13:13:25;;;;;;;;;;;8.80;99.90;;;;;;5019221;28;19912;-87
2023/03/11 13:15:51;;;;;;;;;;;8.90;99.90;;;;;;5052595;28;19912;-90
2023/03/11 13:18:31;;;;;;;;;;;8.90;99.90;;;;;;5018658;28;19912;-87
2023/03/11 13:20:58;;;;;;;;;;;8.90;99.90;;;;;;5036809;28;20022;-87
2023/03/11 13:23:38;;;;;;;;;;;8.90;99.90;;;;;;5038951;28;19908;-90
2023/03/11 13:26:09;;;;;;;;;;;9.00;99.90;;;;;;5039981;28;19904;-88
2023/03/11 13:28:50;;;;;;;;;;;9.00;99.90;;;;;;5039900;28;19905;-90
2023/03/11 13:31:30;;;;;;;;;;;9.20;99.90;;;;;;5058476;28;19912;-90
2023/03/11 13:34:20;;;;;;;;;;;9.20;99.90;;;;;;5039599;28;19966;-89
2023/03/11 13:37:09;;;;;;;;;;;9.20;97.70;;;;;;5034417;28;20417;-88
2023/03/11 13:39:42;;;;;;;;;;;9.20;99.90;;;;;;5026128;28;19909;-91
2023/03/11 13:42:20;;;;;;;;;;;9.30;99.90;;;;;;5037012;28;19917;-89
2023/03/11 13:44:46;;;;;;;;;;;9.30;99.90;;;;;;5038746;28;19909;-89
2023/03/11 13:47:16;;;;;;;;;;;9.40;99.90;;;;;;5037661;28;19916;-86
2023/03/11 13:49:44;;;;;;;;;;;9.40;98.90;;;;;;5038046;28;19904;-87
2023/03/11 13:52:23;;;;;;;;;;;9.50;99.90;;;;;;5056202;28;19911;-89
2023/03/11 13:54:54;;;;;;;;;;;9.60;99.90;;;;;;5036474;28;19920;-88
2023/03/11 13:57:26;;;;;;;;;;;9.60;99.90;;;;;;5026696;28;19905;-88
2023/03/11 13:59:53;;;;;;;;;;;9.70;99.90;;;;;;5028384;28;19924;-88
2023/03/11 14:02:20;;;;;;;;;;;9.80;99.90;;;;;;5027689;28;19919;-88
2023/03/11 14:04:49;;;;;;;;;;;9.70;99.90;;;;;;5035812;28;19944;-92
2023/03/11 14:07:23;;;;;;;;;;;9.80;99.90;;;;;;5022995;28;19905;-88
2023/03/11 14:10:07;;;;;;;;;;;9.80;99.90;;;;;;5038948;28;19905;-90
2023/03/11 14:12:33;;;;;;;;;;;9.90;99.90;;;;;;5038934;28;19910;-91
2023/03/11 14:15:05;;;;;;;;;;;9.90;99.90;;;;;;5038655;28;19916;-93
2023/03/11 14:17:36;;;;;;;;;;;10.00;99.90;;;;;;5054029;28;19967;-89
2023/03/11 14:20:29;;;;;;;;;;;10.00;99.90;;;;;;5037287;28;19912;-93
2023/03/11 14:22:55;;;;;;;;;;;10.10;99.90;;;;;;5057160;28;20003;-90
2023/03/11 14:25:47;;;;;;;;;;;10.10;99.90;;;;;;5048523;28;19915;-91
2023/03/11 14:28:17;;;;;;;;;;;10.10;99.90;;;;;;5055700;28;19944;-91
2023/03/11 14:30:54;;;;;;;;;;;10.10;99.90;;;;;;5057276;28;19905;-94
2023/03/11 14:33:24;;;;;;;;;;;10.10;99.90;;;;;;5055583;28;19905;-92
2023/03/11 14:35:57;;;;;;;;;;;10.10;97.40;;;;;;5053118;28;19908;-90
2023/03/11 14:39:27;;;;;;;;;;;10.00;99.90;;;;;;5051342;28;19905;-95
2023/03/11 14:41:40;;;;;;;;;;;;;;;;;;;;;
2023/03/11 14:47:22;;;;;;;;;;;10.00;99.90;;;;;;5053967;28;19959;-94
2023/03/11 14:49:48;;;;;;;;;;;9.90;99.90;;;;;;5039261;28;20022;-90
2023/03/11 14:52:28;;;;;;;;;;;9.90;96.80;;;;;;5038240;28;19905;-90
2023/03/11 14:54:58;;;;;;;;;;;9.90;99.90;;;;;;5040085;28;19915;-91
2023/03/11 14:57:28;;;;;;;;;;;9.80;92.80;;;;;;5038911;28;19976;-91
2023/03/11 14:59:58;;;;;;;;;;;9.70;99.90;;;;;;5038606;28;19916;-90
2023/03/11 15:02:44;;;;;;;;;;;9.70;99.90;;;;;;5038241;28;19909;-90
2023/03/11 15:05:18;;;;;;;;;;;9.70;99.90;;;;;;5038070;28;19923;-89
2023/03/11 15:08:03;;;;;;;;;;;9.70;99.90;;;;;;5038085;28;19912;-89
2023/03/11 15:10:29;;;;;;;;;;;9.60;98.20;;;;;;5058571;28;19995;-87
2023/03/11 15:13:08;;;;;;;;;;;9.70;99.90;;;;;;5075393;28;19943;-90